sensor_id;sensor_type;location;lat;lon;timestamp;temperature;humidity
41592;DHT22;28026;48.562;14.440;2022-08-01T00:02:09;18.80;99.90
41592;DHT22;28026;48.562;14.440;2022-08-01T00:04:40;18.70;99.90
41592;DHT22;28026;48.562;14.440;2022-08-01T00:07:11;18.80;99.90
41592;DHT22;28026;48.562;14.440;2022-08-01T00:09:42;18.80;99.90
41592;DHT22;28026;48.562;14.440;2022-08-01T00:12:13;18.70;99.90
41592;DHT22;28026;48.562;14.440;2022-08-01T00:14:44;18.70;99.90
41592;DHT22;28026;48.562;14.440;2022-08-01T00:17:14;18.50;99.90
41592;DHT22;28026;48.562;14.440;2022-08-01T00:19:46;18.40;99.90
41592;DHT22;28026;48.562;14.440;2022-08-01T00:22:16;18.40;99.90
41592;DHT22;28026;48.562;14.440;2022-08-01T00:24:48;18.30;99.90
41592;DHT22;28026;48.562;14.440;2022-08-01T00:27:19;18.20;99.90
41592;DHT22;28026;48.562;14.440;2022-08-01T00:29:50;18.10;99.90
41592;DHT22;28026;48.562;14.440;2022-08-01T00:32:21;18.10;99.90
41592;DHT22;28026;48.562;14.440;2022-08-01T00:34:52;18.10;99.90
41592;DHT22;28026;48.562;14.440;2022-08-01T00:37:23;18.20;99.90
41592;DHT22;28026;48.562;14.440;2022-08-01T00:39:54;18.20;99.90
41592;DHT22;28026;48.562;14.440;2022-08-01T00:42:25;18.20;99.90
41592;DHT22;28026;48.562;14.440;2022-08-01T00:44:56;18.30;99.90
41592;DHT22;28026;48.562;14.440;2022-08-01T00:47:27;18.40;99.90
41592;DHT22;28026;48.562;14.440;2022-08-01T00:49:58;18.50;99.90
41592;DHT22;28026;48.562;14.440;2022-08-01T00:52:29;18.50;99.90
41592;DHT22;28026;48.562;14.440;2022-08-01T00:55:01;18.60;99.90
41592;DHT22;28026;48.562;14.440;2022-08-01T00:57:32;18.60;99.90
41592;DHT22;28026;48.562;14.440;2022-08-01T01:00:05;18.60;99.90
41592;DHT22;28026;48.562;14.440;2022-08-01T01:02:38;18.60;99.90
41592;DHT22;28026;48.562;14.440;2022-08-01T01:05:09;18.50;99.90
41592;DHT22;28026;48.562;14.440;2022-08-01T01:07:59;18.50;99.90
41592;DHT22;28026;48.562;14.440;2022-08-01T01:11:03;18.50;99.90
41592;DHT22;28026;48.562;14.440;2022-08-01T01:14:05;18.60;99.90
41592;DHT22;28026;48.562;14.440;2022-08-01T01:16:46;18.60;99.90
41592;DHT22;28026;48.562;14.440;2022-08-01T01:19:23;18.60;99.90
41592;DHT22;28026;48.562;14.440;2022-08-01T01:25:26;18.60;99.90
41592;DHT22;28026;48.562;14.440;2022-08-01T01:31:33;18.50;99.90
41592;DHT22;28026;48.562;14.440;2022-08-01T01:34:26;18.60;99.90
41592;DHT22;28026;48.562;14.440;2022-08-01T01:37:04;18.50;99.90
41592;DHT22;28026;48.562;14.440;2022-08-01T01:39:42;18.50;99.90
41592;DHT22;28026;48.562;14.440;2022-08-01T01:42:18;18.50;99.90
41592;DHT22;28026;48.562;14.440;2022-08-01T01:44:51;18.40;99.90
41592;DHT22;28026;48.562;14.440;2022-08-01T01:47:25;18.40;99.90
41592;DHT22;28026;48.562;14.440;2022-08-01T01:50:00;18.50;99.90
41592;DHT22;28026;48.562;14.440;2022-08-01T01:52:35;18.40;99.90
41592;DHT22;28026;48.562;14.440;2022-08-01T01:55:10;18.30;99.90
41592;DHT22;28026;48.562;14.440;2022-08-01T01:57:44;18.20;99.90
41592;DHT22;28026;48.562;14.440;2022-08-01T02:00:17;18.20;99.90
41592;DHT22;28026;48.562;14.440;2022-08-01T02:02:50;18.20;99.90
41592;DHT22;28026;48.562;14.440;2022-08-01T02:05:24;18.20;99.90
41592;DHT22;28026;48.562;14.440;2022-08-01T02:07:58;18.20;99.90
41592;DHT22;28026;48.562;14.440;2022-08-01T02:10:31;18.30;99.90
41592;DHT22;28026;48.562;14.440;2022-08-01T02:13:05;18.20;99.90
41592;DHT22;28026;48.562;14.440;2022-08-01T02:15:38;18.10;99.90
41592;DHT22;28026;48.562;14.440;2022-08-01T02:18:10;18.00;99.90
41592;DHT22;28026;48.562;14.440;2022-08-01T02:20:43;17.80;99.90
41592;DHT22;28026;48.562;14.440;2022-08-01T02:23:16;17.70;99.90
41592;DHT22;28026;48.562;14.440;2022-08-01T02:25:52;17.60;99.90
41592;DHT22;28026;48.562;14.440;2022-08-01T02:28:32;17.60;99.90
41592;DHT22;28026;48.562;14.440;2022-08-01T02:31:13;17.60;99.90
41592;DHT22;28026;48.562;14.440;2022-08-01T02:34:11;17.60;99.90
41592;DHT22;28026;48.562;14.440;2022-08-01T02:36:48;17.60;99.90
41592;DHT22;28026;48.562;14.440;2022-08-01T02:39:22;17.60;99.90
41592;DHT22;28026;48.562;14.440;2022-08-01T02:42:01;17.60;99.90
41592;DHT22;28026;48.562;14.440;2022-08-01T02:44:39;17.60;99.90
41592;DHT22;28026;48.562;14.440;2022-08-01T02:47:17;17.70;99.90
41592;DHT22;28026;48.562;14.440;2022-08-01T02:49:54;17.80;99.90
41592;DHT22;28026;48.562;14.440;2022-08-01T02:52:28;17.80;99.90
41592;DHT22;28026;48.562;14.440;2022-08-01T02:55:03;17.80;99.90
41592;DHT22;28026;48.562;14.440;2022-08-01T02:57:37;17.70;99.90
41592;DHT22;28026;48.562;14.440;2022-08-01T03:00:16;17.60;99.90
41592;DHT22;28026;48.562;14.440;2022-08-01T03:02:49;17.60;99.90
41592;DHT22;28026;48.562;14.440;2022-08-01T03:05:25;17.60;99.90
41592;DHT22;28026;48.562;14.440;2022-08-01T03:07:59;17.60;99.90
41592;DHT22;28026;48.562;14.440;2022-08-01T03:10:31;17.60;99.90
41592;DHT22;28026;48.562;14.440;2022-08-01T03:13:07;17.50;99.90
41592;DHT22;28026;48.562;14.440;2022-08-01T03:15:43;17.60;99.90
41592;DHT22;28026;48.562;14.440;2022-08-01T03:18:16;17.50;99.90
41592;DHT22;28026;48.562;14.440;2022-08-01T03:20:49;17.50;99.90
41592;DHT22;28026;48.562;14.440;2022-08-01T03:23:24;17.60;99.90
41592;DHT22;28026;48.562;14.440;2022-08-01T03:25:57;17.60;99.90
41592;DHT22;28026;48.562;14.440;2022-08-01T03:28:32;17.70;99.90
41592;DHT22;28026;48.562;14.440;2022-08-01T03:31:04;17.70;99.90
41592;DHT22;28026;48.562;14.440;2022-08-01T03:33:35;17.60;99.90
41592;DHT22;28026;48.562;14.440;2022-08-01T03:36:09;17.60;99.90
41592;DHT22;28026;48.562;14.440;2022-08-01T03:38:43;17.60;99.90
41592;DHT22;28026;48.562;14.440;2022-08-01T03:41:21;17.60;99.90
41592;DHT22;28026;48.562;14.440;2022-08-01T03:44:03;17.70;99.90
41592;DHT22;28026;48.562;14.440;2022-08-01T03:46:44;17.70;99.90
41592;DHT22;28026;48.562;14.440;2022-08-01T03:49:23;17.70;99.90
41592;DHT22;28026;48.562;14.440;2022-08-01T03:52:02;17.70;99.90
41592;DHT22;28026;48.562;14.440;2022-08-01T03:54:41;17.70;99.90
41592;DHT22;28026;48.562;14.440;2022-08-01T03:57:17;17.70;99.90
41592;DHT22;28026;48.562;14.440;2022-08-01T03:59:50;17.70;99.90
41592;DHT22;28026;48.562;14.440;2022-08-01T04:02:23;17.70;99.90
41592;DHT22;28026;48.562;14.440;2022-08-01T04:04:56;17.70;99.90
41592;DHT22;28026;48.562;14.440;2022-08-01T04:07:30;17.70;99.90
41592;DHT22;28026;48.562;14.440;2022-08-01T04:10:06;17.70;99.90
41592;DHT22;28026;48.562;14.440;2022-08-01T04:12:38;17.80;99.90
41592;DHT22;28026;48.562;14.440;2022-08-01T04:15:09;17.70;99.90
41592;DHT22;28026;48.562;14.440;2022-08-01T04:17:40;17.70;99.90
41592;DHT22;28026;48.562;14.440;2022-08-01T04:20:11;17.70;99.90
41592;DHT22;28026;48.562;14.440;2022-08-01T04:22:43;17.70;99.90
41592;DHT22;28026;48.562;14.440;2022-08-01T04:25:32;17.80;99.90
41592;DHT22;28026;48.562;14.440;2022-08-01T04:28:09;17.80;99.90
41592;DHT22;28026;48.562;14.440;2022-08-01T04:30:48;17.90;99.90
41592;DHT22;28026;48.562;14.440;2022-08-01T04:33:26;18.00;99.90
41592;DHT22;28026;48.562;14.440;2022-08-01T04:36:02;18.00;99.90
41592;DHT22;28026;48.562;14.440;2022-08-01T04:38:37;18.00;99.90
41592;DHT22;28026;48.562;14.440;2022-08-01T04:41:13;18.00;99.90
41592;DHT22;28026;48.562;14.440;2022-08-01T04:43:46;17.90;99.90
41592;DHT22;28026;48.562;14.440;2022-08-01T04:46:18;18.00;99.90
41592;DHT22;28026;48.562;14.440;2022-08-01T04:48:50;18.00;99.90
41592;DHT22;28026;48.562;14.440;2022-08-01T04:51:22;18.20;99.90
41592;DHT22;28026;48.562;14.440;2022-08-01T04:53:53;18.30;99.90
41592;DHT22;28026;48.562;14.440;2022-08-01T04:56:24;18.30;99.90
41592;DHT22;28026;48.562;14.440;2022-08-01T04:58:55;18.10;99.90
41592;DHT22;28026;48.562;14.440;2022-08-01T05:01:49;18.10;99.90
41592;DHT22;28026;48.562;14.440;2022-08-01T05:04:21;18.20;99.90
41592;DHT22;28026;48.562;14.440;2022-08-01T05:06:51;18.20;99.90
41592;DHT22;28026;48.562;14.440;2022-08-01T05:09:22;18.30;99.90
41592;DHT22;28026;48.562;14.440;2022-08-01T05:11:53;18.30;99.90
41592;DHT22;28026;48.562;14.440;2022-08-01T05:14:25;18.40;99.90
41592;DHT22;28026;48.562;14.440;2022-08-01T05:16:57;18.50;99.90
41592;DHT22;28026;48.562;14.440;2022-08-01T05:19:36;18.40;99.90
41592;DHT22;28026;48.562;14.440;2022-08-01T05:22:09;18.40;99.90
41592;DHT22;28026;48.562;14.440;2022-08-01T05:24:40;18.50;99.90
41592;DHT22;28026;48.562;14.440;2022-08-01T05:27:14;18.40;99.90
41592;DHT22;28026;48.562;14.440;2022-08-01T05:29:45;18.50;99.90
41592;DHT22;28026;48.562;14.440;2022-08-01T05:32:16;18.50;99.90
41592;DHT22;28026;48.562;14.440;2022-08-01T05:34:47;18.40;99.90
41592;DHT22;28026;48.562;14.440;2022-08-01T05:37:18;18.50;99.90
41592;DHT22;28026;48.562;14.440;2022-08-01T05:39:49;18.50;99.90
41592;DHT22;28026;48.562;14.440;2022-08-01T05:42:20;18.60;99.90
41592;DHT22;28026;48.562;14.440;2022-08-01T05:44:51;18.50;99.90
41592;DHT22;28026;48.562;14.440;2022-08-01T05:47:22;18.60;99.90
41592;DHT22;28026;48.562;14.440;2022-08-01T05:49:54;18.60;99.90
41592;DHT22;28026;48.562;14.440;2022-08-01T05:52:25;18.50;99.90
41592;DHT22;28026;48.562;14.440;2022-08-01T05:54:56;18.60;99.90
41592;DHT22;28026;48.562;14.440;2022-08-01T05:57:27;18.60;99.90
41592;DHT22;28026;48.562;14.440;2022-08-01T05:59:57;18.80;99.90
41592;DHT22;28026;48.562;14.440;2022-08-01T06:02:28;18.90;99.90
41592;DHT22;28026;48.562;14.440;2022-08-01T06:04:59;19.10;99.90
41592;DHT22;28026;48.562;14.440;2022-08-01T06:07:30;19.20;99.90
41592;DHT22;28026;48.562;14.440;2022-08-01T06:10:02;19.40;99.90
41592;DHT22;28026;48.562;14.440;2022-08-01T06:12:33;19.50;99.90
41592;DHT22;28026;48.562;14.440;2022-08-01T06:15:06;19.50;99.90
41592;DHT22;28026;48.562;14.440;2022-08-01T06:17:38;19.30;99.90
41592;DHT22;28026;48.562;14.440;2022-08-01T06:20:10;20.10;99.90
41592;DHT22;28026;48.562;14.440;2022-08-01T06:22:41;20.80;99.90
41592;DHT22;28026;48.562;14.440;2022-08-01T06:25:12;20.90;99.90
41592;DHT22;28026;48.562;14.440;2022-08-01T06:27:43;20.60;99.90
41592;DHT22;28026;48.562;14.440;2022-08-01T06:30:15;20.50;99.90
41592;DHT22;28026;48.562;14.440;2022-08-01T06:32:46;20.00;99.90
41592;DHT22;28026;48.562;14.440;2022-08-01T06:35:18;19.70;99.90
41592;DHT22;28026;48.562;14.440;2022-08-01T06:37:49;19.90;99.90
41592;DHT22;28026;48.562;14.440;2022-08-01T06:40:20;19.80;99.90
41592;DHT22;28026;48.562;14.440;2022-08-01T06:42:51;19.90;99.90
41592;DHT22;28026;48.562;14.440;2022-08-01T06:45:22;19.90;99.90
41592;DHT22;28026;48.562;14.440;2022-08-01T06:47:53;20.10;99.90
41592;DHT22;28026;48.562;14.440;2022-08-01T06:50:24;20.40;99.90
41592;DHT22;28026;48.562;14.440;2022-08-01T06:52:55;20.80;99.90
41592;DHT22;28026;48.562;14.440;2022-08-01T06:55:26;21.10;99.90
41592;DHT22;28026;48.562;14.440;2022-08-01T06:57:57;21.10;99.90
41592;DHT22;28026;48.562;14.440;2022-08-01T07:00:28;21.00;99.90
41592;DHT22;28026;48.562;14.440;2022-08-01T07:02:59;21.00;99.90
41592;DHT22;28026;48.562;14.440;2022-08-01T07:05:30;21.20;99.90
41592;DHT22;28026;48.562;14.440;2022-08-01T07:08:01;21.60;99.90
41592;DHT22;28026;48.562;14.440;2022-08-01T07:10:32;22.10;99.90
41592;DHT22;28026;48.562;14.440;2022-08-01T07:13:03;22.30;99.90
41592;DHT22;28026;48.562;14.440;2022-08-01T07:15:34;22.30;99.90
41592;DHT22;28026;48.562;14.440;2022-08-01T07:18:05;22.00;99.90
41592;DHT22;28026;48.562;14.440;2022-08-01T07:20:37;22.20;99.90
41592;DHT22;28026;48.562;14.440;2022-08-01T07:23:08;22.30;99.90
41592;DHT22;28026;48.562;14.440;2022-08-01T07:25:39;22.60;99.90
41592;DHT22;28026;48.562;14.440;2022-08-01T07:28:10;22.40;99.90
41592;DHT22;28026;48.562;14.440;2022-08-01T07:30:41;22.90;99.90
41592;DHT22;28026;48.562;14.440;2022-08-01T07:33:14;22.90;99.90
41592;DHT22;28026;48.562;14.440;2022-08-01T07:35:45;23.10;99.90
41592;DHT22;28026;48.562;14.440;2022-08-01T07:38:16;23.80;99.90
41592;DHT22;28026;48.562;14.440;2022-08-01T07:40:47;23.90;99.90
41592;DHT22;28026;48.562;14.440;2022-08-01T07:43:18;24.40;99.90
41592;DHT22;28026;48.562;14.440;2022-08-01T07:45:49;24.30;99.90
41592;DHT22;28026;48.562;14.440;2022-08-01T07:48:20;24.20;99.90
41592;DHT22;28026;48.562;14.440;2022-08-01T07:50:54;24.00;99.90
41592;DHT22;28026;48.562;14.440;2022-08-01T07:53:26;24.20;99.90
41592;DHT22;28026;48.562;14.440;2022-08-01T07:55:56;24.30;99.90
41592;DHT22;28026;48.562;14.440;2022-08-01T07:58:28;24.40;99.90
41592;DHT22;28026;48.562;14.440;2022-08-01T08:00:59;25.00;99.90
41592;DHT22;28026;48.562;14.440;2022-08-01T08:03:30;25.10;99.90
41592;DHT22;28026;48.562;14.440;2022-08-01T08:06:01;25.20;99.90
41592;DHT22;28026;48.562;14.440;2022-08-01T08:08:32;25.40;99.90
41592;DHT22;28026;48.562;14.440;2022-08-01T08:11:04;25.20;99.90
41592;DHT22;28026;48.562;14.440;2022-08-01T08:13:35;25.40;99.90
41592;DHT22;28026;48.562;14.440;2022-08-01T08:16:06;25.70;99.90
41592;DHT22;28026;48.562;14.440;2022-08-01T08:18:37;25.50;99.90
41592;DHT22;28026;48.562;14.440;2022-08-01T08:21:08;25.00;99.90
41592;DHT22;28026;48.562;14.440;2022-08-01T08:23:39;25.10;99.90
41592;DHT22;28026;48.562;14.440;2022-08-01T08:26:29;25.60;99.90
41592;DHT22;28026;48.562;14.440;2022-08-01T08:29:00;25.70;99.90
41592;DHT22;28026;48.562;14.440;2022-08-01T08:31:31;25.60;99.90
41592;DHT22;28026;48.562;14.440;2022-08-01T08:34:02;25.60;99.90
41592;DHT22;28026;48.562;14.440;2022-08-01T08:36:33;25.30;99.90
41592;DHT22;28026;48.562;14.440;2022-08-01T08:39:05;24.80;99.90
41592;DHT22;28026;48.562;14.440;2022-08-01T08:41:37;24.60;99.90
41592;DHT22;28026;48.562;14.440;2022-08-01T08:44:09;24.40;99.90
41592;DHT22;28026;48.562;14.440;2022-08-01T08:46:43;24.60;99.90
41592;DHT22;28026;48.562;14.440;2022-08-01T08:49:27;24.40;99.90
41592;DHT22;28026;48.562;14.440;2022-08-01T08:52:00;24.30;99.90
41592;DHT22;28026;48.562;14.440;2022-08-01T08:54:35;24.20;99.90
41592;DHT22;28026;48.562;14.440;2022-08-01T08:57:09;24.20;99.90
41592;DHT22;28026;48.562;14.440;2022-08-01T08:59:44;23.60;99.90
41592;DHT22;28026;48.562;14.440;2022-08-01T09:02:15;23.50;99.90
41592;DHT22;28026;48.562;14.440;2022-08-01T09:04:48;23.60;99.90
41592;DHT22;28026;48.562;14.440;2022-08-01T09:07:20;23.80;99.90
41592;DHT22;28026;48.562;14.440;2022-08-01T09:09:53;23.80;99.90
41592;DHT22;28026;48.562;14.440;2022-08-01T09:12:23;23.70;99.90
41592;DHT22;28026;48.562;14.440;2022-08-01T09:14:54;23.60;99.90
41592;DHT22;28026;48.562;14.440;2022-08-01T09:17:25;23.30;99.90
41592;DHT22;28026;48.562;14.440;2022-08-01T09:19:56;23.00;99.90
41592;DHT22;28026;48.562;14.440;2022-08-01T09:22:33;22.90;99.90
41592;DHT22;28026;48.562;14.440;2022-08-01T09:25:09;23.40;99.90
41592;DHT22;28026;48.562;14.440;2022-08-01T09:27:41;23.50;99.90
41592;DHT22;28026;48.562;14.440;2022-08-01T09:30:13;24.10;99.90
41592;DHT22;28026;48.562;14.440;2022-08-01T09:33:02;24.50;99.90
41592;DHT22;28026;48.562;14.440;2022-08-01T09:35:35;24.90;99.90
41592;DHT22;28026;48.562;14.440;2022-08-01T09:40:52;24.90;99.90
41592;DHT22;28026;48.562;14.440;2022-08-01T09:43:30;24.30;99.90
41592;DHT22;28026;48.562;14.440;2022-08-01T09:46:09;24.10;99.90
41592;DHT22;28026;48.562;14.440;2022-08-01T09:48:58;23.90;99.90
41592;DHT22;28026;48.562;14.440;2022-08-01T09:51:38;24.30;99.90
41592;DHT22;28026;48.562;14.440;2022-08-01T09:54:10;24.30;99.90
41592;DHT22;28026;48.562;14.440;2022-08-01T09:56:42;24.30;99.90
41592;DHT22;28026;48.562;14.440;2022-08-01T09:59:13;23.90;99.90
41592;DHT22;28026;48.562;14.440;2022-08-01T10:01:47;23.90;99.90
41592;DHT22;28026;48.562;14.440;2022-08-01T10:04:21;24.10;99.90
41592;DHT22;28026;48.562;14.440;2022-08-01T10:07:06;24.10;99.90
41592;DHT22;28026;48.562;14.440;2022-08-01T10:09:38;24.00;99.90
41592;DHT22;28026;48.562;14.440;2022-08-01T10:12:09;23.80;99.90
41592;DHT22;28026;48.562;14.440;2022-08-01T10:14:46;23.90;99.90
41592;DHT22;28026;48.562;14.440;2022-08-01T10:17:25;23.80;99.90
41592;DHT22;28026;48.562;14.440;2022-08-01T10:19:56;24.00;99.90
41592;DHT22;28026;48.562;14.440;2022-08-01T10:22:30;23.50;99.90
41592;DHT22;28026;48.562;14.440;2022-08-01T10:25:05;23.30;99.90
41592;DHT22;28026;48.562;14.440;2022-08-01T10:27:38;23.60;99.90
41592;DHT22;28026;48.562;14.440;2022-08-01T10:30:15;24.40;99.90
41592;DHT22;28026;48.562;14.440;2022-08-01T10:32:47;24.70;99.90
41592;DHT22;28026;48.562;14.440;2022-08-01T10:35:19;24.60;99.90
41592;DHT22;28026;48.562;14.440;2022-08-01T10:37:50;24.70;99.90
41592;DHT22;28026;48.562;14.440;2022-08-01T10:40:26;24.20;99.90
41592;DHT22;28026;48.562;14.440;2022-08-01T10:42:58;23.70;99.90
41592;DHT22;28026;48.562;14.440;2022-08-01T10:45:29;23.90;99.90
41592;DHT22;28026;48.562;14.440;2022-08-01T10:48:12;24.00;99.90
41592;DHT22;28026;48.562;14.440;2022-08-01T10:50:55;23.70;99.90
41592;DHT22;28026;48.562;14.440;2022-08-01T10:53:31;23.20;99.90
41592;DHT22;28026;48.562;14.440;2022-08-01T10:56:04;22.80;99.90
41592;DHT22;28026;48.562;14.440;2022-08-01T10:58:39;22.80;99.90
41592;DHT22;28026;48.562;14.440;2022-08-01T11:04:04;22.70;99.90
41592;DHT22;28026;48.562;14.440;2022-08-01T11:12:18;25.30;99.90
41592;DHT22;28026;48.562;14.440;2022-08-01T11:17:45;24.60;99.90
41592;DHT22;28026;48.562;14.440;2022-08-01T11:20:27;24.40;99.90
41592;DHT22;28026;48.562;14.440;2022-08-01T11:33:48;24.90;99.90
41592;DHT22;28026;48.562;14.440;2022-08-01T11:36:19;25.20;99.90
41592;DHT22;28026;48.562;14.440;2022-08-01T11:41:32;25.20;99.90
41592;DHT22;28026;48.562;14.440;2022-08-01T11:44:17;24.50;99.90
41592;DHT22;28026;48.562;14.440;2022-08-01T11:55:07;23.00;99.90
41592;DHT22;28026;48.562;14.440;2022-08-01T11:57:40;23.00;99.90
41592;DHT22;28026;48.562;14.440;2022-08-01T12:00:17;23.10;99.90
41592;DHT22;28026;48.562;14.440;2022-08-01T12:02:57;23.10;99.90
41592;DHT22;28026;48.562;14.440;2022-08-01T12:05:35;23.20;99.90
41592;DHT22;28026;48.562;14.440;2022-08-01T12:08:09;23.20;99.90
41592;DHT22;28026;48.562;14.440;2022-08-01T12:10:40;24.00;99.90
41592;DHT22;28026;48.562;14.440;2022-08-01T12:13:11;24.40;99.90
41592;DHT22;28026;48.562;14.440;2022-08-01T12:15:42;25.10;99.90
41592;DHT22;28026;48.562;14.440;2022-08-01T12:18:16;25.00;99.90
41592;DHT22;28026;48.562;14.440;2022-08-01T12:20:47;25.00;99.90
41592;DHT22;28026;48.562;14.440;2022-08-01T12:23:18;25.30;99.90
41592;DHT22;28026;48.562;14.440;2022-08-01T12:25:52;25.80;99.90
41592;DHT22;28026;48.562;14.440;2022-08-01T12:28:24;25.70;99.90
41592;DHT22;28026;48.562;14.440;2022-08-01T12:30:55;25.10;99.90
41592;DHT22;28026;48.562;14.440;2022-08-01T12:33:26;24.80;99.90
41592;DHT22;28026;48.562;14.440;2022-08-01T12:35:57;24.50;99.90
41592;DHT22;28026;48.562;14.440;2022-08-01T12:38:28;24.70;99.90
41592;DHT22;28026;48.562;14.440;2022-08-01T12:41:03;24.90;99.90
41592;DHT22;28026;48.562;14.440;2022-08-01T12:43:34;24.70;99.90
41592;DHT22;28026;48.562;14.440;2022-08-01T12:46:05;24.80;99.90
41592;DHT22;28026;48.562;14.440;2022-08-01T12:48:39;24.90;99.90
41592;DHT22;28026;48.562;14.440;2022-08-01T12:51:10;24.60;99.90
41592;DHT22;28026;48.562;14.440;2022-08-01T12:53:42;24.00;99.90
41592;DHT22;28026;48.562;14.440;2022-08-01T12:56:13;23.70;99.90
41592;DHT22;28026;48.562;14.440;2022-08-01T12:58:45;23.70;99.90
41592;DHT22;28026;48.562;14.440;2022-08-01T13:01:15;23.80;99.90
41592;DHT22;28026;48.562;14.440;2022-08-01T13:04:01;23.70;99.90
41592;DHT22;28026;48.562;14.440;2022-08-01T13:06:36;23.90;99.90
41592;DHT22;28026;48.562;14.440;2022-08-01T13:09:08;24.00;99.90
41592;DHT22;28026;48.562;14.440;2022-08-01T13:11:41;23.60;99.90
41592;DHT22;28026;48.562;14.440;2022-08-01T13:14:29;23.80;99.90
41592;DHT22;28026;48.562;14.440;2022-08-01T13:17:00;23.80;99.90
41592;DHT22;28026;48.562;14.440;2022-08-01T13:19:44;24.10;99.90
41592;DHT22;28026;48.562;14.440;2022-08-01T13:22:17;24.40;99.90
41592;DHT22;28026;48.562;14.440;2022-08-01T13:24:48;25.00;99.90
41592;DHT22;28026;48.562;14.440;2022-08-01T13:27:22;25.30;99.90
41592;DHT22;28026;48.562;14.440;2022-08-01T13:30:14;25.50;99.90
41592;DHT22;28026;48.562;14.440;2022-08-01T13:33:08;25.40;99.90
41592;DHT22;28026;48.562;14.440;2022-08-01T13:35:39;25.30;99.90
41592;DHT22;28026;48.562;14.440;2022-08-01T13:38:10;25.50;99.90
41592;DHT22;28026;48.562;14.440;2022-08-01T13:40:41;25.40;99.90
41592;DHT22;28026;48.562;14.440;2022-08-01T13:43:12;25.30;99.90
41592;DHT22;28026;48.562;14.440;2022-08-01T13:45:43;26.10;99.90
41592;DHT22;28026;48.562;14.440;2022-08-01T13:48:14;25.90;99.90
41592;DHT22;28026;48.562;14.440;2022-08-01T13:50:45;26.80;99.90
41592;DHT22;28026;48.562;14.440;2022-08-01T13:53:16;27.00;99.90
41592;DHT22;28026;48.562;14.440;2022-08-01T13:55:47;27.10;99.90
41592;DHT22;28026;48.562;14.440;2022-08-01T13:58:18;27.70;99.90
41592;DHT22;28026;48.562;14.440;2022-08-01T14:00:49;27.50;99.90
41592;DHT22;28026;48.562;14.440;2022-08-01T14:03:21;27.70;99.90
41592;DHT22;28026;48.562;14.440;2022-08-01T14:05:53;26.60;99.90
41592;DHT22;28026;48.562;14.440;2022-08-01T14:08:24;26.10;99.90
41592;DHT22;28026;48.562;14.440;2022-08-01T14:10:55;25.40;99.90
41592;DHT22;28026;48.562;14.440;2022-08-01T14:13:28;26.00;99.90
41592;DHT22;28026;48.562;14.440;2022-08-01T14:15:59;25.60;99.90
41592;DHT22;28026;48.562;14.440;2022-08-01T14:18:31;25.40;99.90
41592;DHT22;28026;48.562;14.440;2022-08-01T14:21:03;25.50;99.90
41592;DHT22;28026;48.562;14.440;2022-08-01T14:23:34;26.10;99.90
41592;DHT22;28026;48.562;14.440;2022-08-01T14:26:05;26.70;99.90
41592;DHT22;28026;48.562;14.440;2022-08-01T14:28:36;26.70;99.90
41592;DHT22;28026;48.562;14.440;2022-08-01T14:31:08;26.10;99.90
41592;DHT22;28026;48.562;14.440;2022-08-01T14:33:40;25.80;99.90
41592;DHT22;28026;48.562;14.440;2022-08-01T14:36:11;25.40;99.90
41592;DHT22;28026;48.562;14.440;2022-08-01T14:38:42;24.90;99.90
41592;DHT22;28026;48.562;14.440;2022-08-01T14:41:14;24.80;99.90
41592;DHT22;28026;48.562;14.440;2022-08-01T14:43:45;24.40;99.90
41592;DHT22;28026;48.562;14.440;2022-08-01T14:46:16;24.10;99.90
41592;DHT22;28026;48.562;14.440;2022-08-01T14:48:47;23.80;99.90
41592;DHT22;28026;48.562;14.440;2022-08-01T14:51:18;23.80;99.90
41592;DHT22;28026;48.562;14.440;2022-08-01T14:53:49;23.70;99.90
41592;DHT22;28026;48.562;14.440;2022-08-01T14:56:20;23.50;99.90
41592;DHT22;28026;48.562;14.440;2022-08-01T14:58:51;23.60;99.90
41592;DHT22;28026;48.562;14.440;2022-08-01T15:01:22;23.60;99.90
41592;DHT22;28026;48.562;14.440;2022-08-01T15:03:53;23.90;99.90
41592;DHT22;28026;48.562;14.440;2022-08-01T15:06:24;25.30;99.90
41592;DHT22;28026;48.562;14.440;2022-08-01T15:08:55;25.90;99.90
41592;DHT22;28026;48.562;14.440;2022-08-01T15:11:26;25.60;99.90
41592;DHT22;28026;48.562;14.440;2022-08-01T15:13:57;25.00;99.90
41592;DHT22;28026;48.562;14.440;2022-08-01T15:16:47;25.50;99.90
41592;DHT22;28026;48.562;14.440;2022-08-01T15:19:18;25.40;99.90
41592;DHT22;28026;48.562;14.440;2022-08-01T15:21:49;25.40;99.90
41592;DHT22;28026;48.562;14.440;2022-08-01T15:24:20;25.40;99.90
41592;DHT22;28026;48.562;14.440;2022-08-01T15:26:51;25.30;99.90
41592;DHT22;28026;48.562;14.440;2022-08-01T15:29:22;25.50;99.90
41592;DHT22;28026;48.562;14.440;2022-08-01T15:31:54;25.60;99.90
41592;DHT22;28026;48.562;14.440;2022-08-01T15:34:25;24.60;99.90
41592;DHT22;28026;48.562;14.440;2022-08-01T15:36:57;24.40;99.90
41592;DHT22;28026;48.562;14.440;2022-08-01T15:39:29;24.00;99.90
41592;DHT22;28026;48.562;14.440;2022-08-01T15:42:10;24.10;99.90
41592;DHT22;28026;48.562;14.440;2022-08-01T15:44:44;24.60;99.90
41592;DHT22;28026;48.562;14.440;2022-08-01T15:47:16;24.80;99.90
41592;DHT22;28026;48.562;14.440;2022-08-01T15:49:46;24.70;99.90
41592;DHT22;28026;48.562;14.440;2022-08-01T15:52:18;24.70;99.90
41592;DHT22;28026;48.562;14.440;2022-08-01T15:54:49;25.10;99.90
41592;DHT22;28026;48.562;14.440;2022-08-01T15:57:20;25.30;99.90
41592;DHT22;28026;48.562;14.440;2022-08-01T15:59:51;25.60;99.90
41592;DHT22;28026;48.562;14.440;2022-08-01T16:02:22;25.50;99.90
41592;DHT22;28026;48.562;14.440;2022-08-01T16:04:53;25.40;99.90
41592;DHT22;28026;48.562;14.440;2022-08-01T16:07:24;25.50;99.90
41592;DHT22;28026;48.562;14.440;2022-08-01T16:09:55;25.30;99.90
41592;DHT22;28026;48.562;14.440;2022-08-01T16:12:26;25.00;99.90
41592;DHT22;28026;48.562;14.440;2022-08-01T16:14:57;25.20;99.90
41592;DHT22;28026;48.562;14.440;2022-08-01T16:17:28;25.30;99.90
41592;DHT22;28026;48.562;14.440;2022-08-01T16:19:59;25.10;99.90
41592;DHT22;28026;48.562;14.440;2022-08-01T16:22:30;25.10;99.90
41592;DHT22;28026;48.562;14.440;2022-08-01T16:25:01;25.00;99.90
41592;DHT22;28026;48.562;14.440;2022-08-01T16:27:34;24.80;99.90
41592;DHT22;28026;48.562;14.440;2022-08-01T16:30:05;24.90;99.90
41592;DHT22;28026;48.562;14.440;2022-08-01T16:32:37;24.70;99.90
41592;DHT22;28026;48.562;14.440;2022-08-01T16:35:08;24.80;99.90
41592;DHT22;28026;48.562;14.440;2022-08-01T16:37:39;24.60;99.90